Flight Track Log - Related Links

Times and Time Zones

All times are in EDT time to prevent confusion due to time zone crossing. See the FFT750 flight status page for this flight to view local times or setup timezone preferences in your user account.

Time Position Orientation Groundspeed Altitude Reporting Facility
EDT Latitude Longitude Course Direction KTS MPH feet Rate Location/Type
Sun 12:49:26 PM 39.9167 -104.6667 50° Northeast 184 212 6,900  Level Denver TRACON
Sun 12:49:42 PM 39.9303 -104.6458 50° Northeast 187 215 7,100 1,400 Climbing Denver Center
Sun 12:50:26 PM 39.9500 -104.5833 68° East 269 310 8,300 1,673 Climbing Denver TRACON
Sun 12:51:26 PM 39.9500 -104.4833 90° East 306 352 10,000 1,737 Climbing Denver TRACON
Sun 12:52:20 PM 39.9500 -104.3667 90° East 331 381 11,600 1,976 Climbing Denver TRACON
Sun 12:52:48 PM 39.9603 -104.3172 75° East 332 382 12,700 2,600 Climbing Denver Center
Sun 12:53:50 PM 39.9481 -104.1881 97° East 360 414 15,500 2,758 Climbing Denver Center
Sun 12:54:52 PM 39.9306 -104.0450 99° East 371 427 18,400 2,758 Climbing Denver Center
Sun 12:55:54 PM 39.9133 -103.9089 99° East 380 437 21,200 2,516 Climbing Denver Center
Sun 12:56:56 PM 39.9206 -103.7603 86° East 388 447 23,600 2,177 Climbing Denver Center
Sun 12:57:58 PM 39.9353 -103.6119 83° East 393 452 25,700 2,129 Climbing Denver Center
Sun 12:59:00 PM 39.9497 -103.4711 82° East 408 470 28,000 1,597 Climbing Denver Center
Sun 01:00:02 PM 39.9661 -103.3083 82° East 407 468 29,000 484 Climbing Denver Center
Sun 01:01:04 PM 39.9800 -103.1658 83° East 412 474 29,000 48 Level Denver Center
Sun 01:02:06 PM 40.0158 -103.0067 74° East 412 474 29,100 919 Climbing Denver Center
Sun 01:03:08 PM 40.0500 -102.8667 72° East 422 486 30,900 1,887 Climbing Denver Center
Sun 01:04:10 PM 40.0797 -102.7289 74° East 412 474 33,000 1,016 Climbing Denver Center
Sun 01:05:12 PM 40.1161 -102.5667 74° East 419 482 33,000  Level Denver Center
Sun 01:06:14 PM 40.1489 -102.4233 73° East 428 493 33,000 97 Level Denver Center
Sun 01:07:16 PM 40.1872 -102.2581 73° East 429 494 33,200 484 Climbing Denver Center
Sun 01:08:18 PM 40.2186 -102.1125 74° East 433 498 34,000 1,016 Climbing Denver Center
Sun 01:09:20 PM 40.2575 -101.9364 74° East 451 519 35,300 1,065 Climbing Denver Center
Sun 01:10:22 PM 40.2900 -101.7817 75° East 459 528 36,200 1,161 Climbing Denver Center
Sun 01:11:24 PM 40.3297 -101.6033 74° East 458 527 37,700 1,104 Climbing Denver Center
Sun 01:12:27 PM 40.3625 -101.4472 75° East 462 532 38,500 624 Climbing Denver Center
Sun 01:13:29 PM 40.4006 -101.2700 74° East 455 524 39,000 221 Climbing Denver Center
Sun 01:14:43 PM 40.4325 -101.1192 74° East 451 519 39,000  Level Denver Center
Sun 01:15:45 PM 40.4744 -100.9189 75° East 450 518 39,000  Level Denver Center
Sun 01:16:47 PM 40.5103 -100.7433 75° East 450 518 39,000  Level Denver Center
Sun 01:17:49 PM 40.5414 -100.5933 75° East 449 517 39,000  Level Denver Center
Sun 01:18:51 PM 40.5772 -100.4164 75° East 451 519 39,000  Level Denver Center
Sun 01:19:53 PM 40.6089 -100.2639 75° East 455 524 39,000 48 Level Denver Center
Sun 01:20:55 PM 40.6444 -100.0861 75° East 453 521 39,100  Climbing Denver Center
Sun 01:21:57 PM 40.6758 -99.9342 75° East 451 519 39,000 -97 Descending Denver Center
Sun 01:22:59 PM 40.7097 -99.7556 76° East 446 513 38,900 -242 Descending Denver Center
Sun 01:24:01 PM 40.7414 -99.5978 75° East 447 514 38,500 -484 Descending Denver Center
Sun 01:25:03 PM 40.7731 -99.4383 75° East 448 516 37,900 -726 Descending Denver Center
Sun 01:26:05 PM 40.8039 -99.2764 76° East 453 521 37,000 -968 Descending Denver Center
Sun 01:27:07 PM 40.8344 -99.1189 76° East 454 522 35,900 -1,152 Descending Denver Center
Sun 01:27:44 PM 40.8564 -99.0003 76° East 450 518 35,100 -545 Descending Minneapolis Center
Sun 01:28:46 PM 40.8850 -98.8469 76° East 437 503 35,000 -48 Descending Minneapolis Center
Sun 01:29:48 PM 40.9128 -98.6914 77° East 435 501 35,000  Level Minneapolis Center
Sun 01:30:50 PM 40.9436 -98.5367 75° East 435 501 35,000 -97 Level Minneapolis Center
Sun 01:31:52 PM 40.9719 -98.3792 77° East 433 498 34,800 -537 Descending Minneapolis Center
Sun 01:32:53 PM 41.0056 -98.2289 73° East 429 494 33,900 -1,171 Descending Minneapolis Center
Sun 01:33:55 PM 41.0469 -98.0789 70° East 433 498 32,400 -1,765 Descending Minneapolis Center
Sun 01:35:09 PM 41.0944 -97.9047 70° East 427 491 29,900 -2,162 Descending Minneapolis Center
Sun 01:36:11 PM 41.1394 -97.7353 71° East 415 478 27,500 -1,279 Descending Minneapolis Center
Sun 01:37:25 PM 41.1761 -97.5939 71° East 410 472 27,000 -221 Descending Minneapolis Center
Sun 01:38:27 PM 41.2197 -97.4264 71° East 405 466 27,000 -581 Level Minneapolis Center
Sun 01:39:29 PM 41.2481 -97.3164 71° East 401 461 25,800 -2,371 Descending Minneapolis Center
Sun 01:40:31 PM 41.2889 -97.1453 72° East 401 461 22,100 -3,479 Descending Minneapolis Center
Sun 01:41:28 PM 41.2761 -96.9808 96° East 400 460 18,900 -3,319 Descending Minneapolis Center
Sun 01:42:05 PM 41.2792 -96.8889 87° East 402 463 16,900 -2,545 Descending Minneapolis Center
Sun 01:42:34 PM 41.2925 -96.8167 76° East 403 464 16,100 -2,222 Descending Minneapolis Center
Sun 01:42:59 PM 41.2822 -96.7583 103° East 384 442 14,900 -2,323 Descending Minneapolis Center
Sun 01:43:36 PM 41.2947 -96.6789 78° East 389 448 13,700 -2,687 Descending Minneapolis Center
Sun 01:44:06 PM 41.2864 -96.6194 101° East 340 391 11,900 -2,757 Descending Minneapolis Center
Sun 01:44:50 PM 41.2964 -96.5547 78° East 363 418 10,300 -2,328 Descending Minneapolis Center
Sun 01:45:13 PM 41.2994 -96.4878 87° East 313 360 9,300 -2,226 Descending Minneapolis Center
Sun 01:45:52 PM 41.3142 -96.4161 75° East 335 386 8,000 -2,500 Descending Minneapolis Center
Sun 01:46:13 PM 41.3150 -96.3667 89° East 308 354 6,800 -1,839 Descending Minneapolis Center
Sun 01:46:54 PM 41.3283 -96.3058 74° East 317 365 6,100 -1,049 Descending Minneapolis Center
Sun 01:47:56 PM 41.3397 -96.2150 80° East 281 323 5,000 -1,171 Descending Minneapolis Center
Sun 01:48:57 PM 41.3503 -96.1283 81° East 250 288 3,700 -780 Descending Minneapolis Center
Sun 01:49:59 PM 41.3606 -96.0444 81° East 238 274 3,400 -532 Descending Minneapolis Center
Sun 01:50:16 PM 41.3619 -96.0172 86° East 195 224 3,000 -968 Descending Minneapolis Center
Sun 01:51:01 PM 41.3686 -95.9669 80° East 217 250 2,400 -885 Descending Minneapolis Center
Sun 01:51:17 PM 41.3558 -95.9569 150° Southeast 160 184 2,100 -730 Descending Minneapolis Center
Sun 01:52:15 PM 41.3333 -95.9239 132° Southeast 159 183 1,500 -550 Descending Minneapolis Center
Sun 01:53:17 PM 41.3033 -95.8964 145° Southeast 139 160 1,000 -484 Descending Minneapolis Center
Sun 01:55:00 PM 41.3032 -95.8941 90° East  Level Estimated

Login

Don't have an account? Register now (free) for customized features, flight alerts, and more!